createdAt,value
2023-06-02T00:00:15.091Z,113.94
2023-06-02T00:01:15.079Z,111.53
2023-06-02T00:02:15.079Z,111.14
2023-06-02T00:03:15.137Z,112.49
2023-06-02T00:04:15.083Z,112.01
2023-06-02T00:05:15.118Z,114.17
2023-06-02T00:06:15.084Z,112.74
2023-06-02T00:07:15.094Z,113.37
2023-06-02T00:08:15.076Z,112.51
2023-06-02T00:09:15.210Z,113.40
2023-06-02T00:10:15.081Z,115.03
2023-06-02T00:11:15.109Z,111.80
2023-06-02T00:12:15.086Z,112.32
2023-06-02T00:13:15.090Z,112.51
2023-06-02T00:14:15.086Z,110.63
2023-06-02T00:15:15.104Z,112.67
2023-06-02T00:16:15.146Z,111.33
2023-06-02T00:17:15.109Z,108.47
2023-06-02T00:18:15.118Z,111.83
2023-06-02T00:19:15.177Z,110.37
2023-06-02T00:20:15.120Z,112.36
2023-06-02T00:21:15.097Z,111.43
2023-06-02T00:22:15.272Z,111.19
2023-06-02T00:23:15.112Z,110.56
2023-06-02T00:24:15.128Z,110.15
2023-06-02T00:25:15.185Z,110.39
2023-06-02T00:26:15.138Z,111.25
2023-06-02T00:27:15.142Z,112.50
2023-06-02T00:28:15.177Z,110.86
2023-06-02T00:29:15.172Z,110.59
2023-06-02T00:30:15.209Z,108.93
2023-06-02T00:31:15.199Z,111.50
2023-06-02T00:32:15.176Z,108.28
2023-06-02T00:33:15.214Z,111.11
2023-06-02T00:34:15.193Z,107.68
2023-06-02T00:35:15.199Z,107.96
2023-06-02T00:36:15.192Z,109.32
2023-06-02T00:37:15.186Z,108.74
2023-06-02T00:38:15.219Z,105.29
2023-06-02T00:39:16.721Z,106.64
2023-06-02T00:40:15.239Z,107.77
2023-06-02T00:41:15.226Z,109.79
2023-06-02T00:42:15.221Z,109.86
2023-06-02T00:43:15.189Z,111.26
2023-06-02T00:44:15.232Z,110.17
2023-06-02T00:45:15.217Z,112.77
2023-06-02T00:46:15.205Z,114.53
2023-06-02T00:47:15.250Z,112.15
2023-06-02T00:48:15.311Z,113.21
2023-06-02T00:49:15.217Z,109.02
2023-06-02T00:50:15.232Z,108.64
2023-06-02T00:51:15.228Z,110.70
2023-06-02T00:52:15.214Z,109.93
2023-06-02T00:53:15.245Z,107.49
2023-06-02T00:54:15.250Z,107.66
2023-06-02T00:55:15.256Z,109.39
2023-06-02T00:56:15.266Z,109.97
2023-06-02T00:57:15.268Z,113.88
2023-06-02T00:58:15.283Z,111.40
2023-06-02T00:59:15.287Z,111.21
2023-06-02T01:00:15.293Z,110.32
2023-06-02T01:01:15.360Z,110.25
2023-06-02T01:02:15.311Z,110.30
2023-06-02T01:03:15.488Z,113.09
2023-06-02T01:04:15.315Z,109.20
2023-06-02T01:05:15.324Z,111.15
2023-06-02T01:06:15.335Z,111.21
2023-06-02T01:07:15.342Z,109.86
2023-06-02T01:08:15.349Z,110.09
2023-06-02T01:09:15.335Z,109.39
2023-06-02T01:10:15.362Z,110.24
2023-06-02T01:11:15.340Z,110.08
2023-06-02T01:12:15.357Z,110.22
2023-06-02T01:13:15.391Z,109.71
2023-06-02T01:14:15.387Z,112.35
2023-06-02T01:15:15.395Z,109.62
2023-06-02T01:16:15.411Z,112.39
2023-06-02T01:17:15.393Z,110.50
2023-06-02T01:18:15.371Z,111.70
2023-06-02T01:19:15.414Z,113.57
2023-06-02T01:20:15.406Z,111.82
2023-06-02T01:21:15.418Z,111.20
2023-06-02T01:22:15.401Z,112.29
2023-06-02T01:23:15.433Z,114.41
2023-06-02T01:24:15.439Z,115.94
2023-06-02T01:25:15.429Z,114.39
2023-06-02T01:26:15.592Z,115.75
2023-06-02T01:27:15.498Z,114.94
2023-06-02T01:28:15.451Z,112.02
2023-06-02T01:29:15.445Z,114.95
2023-06-02T01:30:15.490Z,113.21
2023-06-02T01:31:15.503Z,112.36
2023-06-02T01:32:15.498Z,110.45
2023-06-02T01:33:15.519Z,111.42
2023-06-02T01:34:16.097Z,112.71
2023-06-02T01:35:15.544Z,112.34
2023-06-02T01:36:15.553Z,111.35
2023-06-02T01:37:15.605Z,110.91
2023-06-02T01:38:15.563Z,111.80
2023-06-02T01:39:15.572Z,112.52
2023-06-02T01:40:15.578Z,113.29
2023-06-02T01:41:15.567Z,112.41
2023-06-02T01:42:46.273Z,50.00
2023-06-02T01:43:46.293Z,50.00
2023-06-02T01:44:46.238Z,50.00
2023-06-02T01:45:46.248Z,50.00
2023-06-02T01:46:46.375Z,50.00
2023-06-02T01:47:46.327Z,52.42
2023-06-02T01:48:46.191Z,50.00
2023-06-02T01:49:46.174Z,51.45
2023-06-02T01:50:46.191Z,52.51
2023-06-02T01:51:46.151Z,50.66
2023-06-02T01:52:46.166Z,51.97
2023-06-02T01:53:46.138Z,53.06
2023-06-02T01:54:46.138Z,54.21
2023-06-02T01:55:46.123Z,53.69
2023-06-02T01:56:46.133Z,52.78
2023-06-02T01:57:46.089Z,54.68
2023-06-02T01:58:46.085Z,51.88
2023-06-02T01:59:46.043Z,53.64
2023-06-02T02:00:46.064Z,55.85
2023-06-02T02:01:46.121Z,52.69
2023-06-02T02:02:46.050Z,54.60
2023-06-02T02:03:46.156Z,53.17
2023-06-02T02:04:45.985Z,56.49
2023-06-02T02:05:45.972Z,54.38
2023-06-02T02:06:45.960Z,52.97
2023-06-02T02:07:45.960Z,54.32
2023-06-02T02:08:45.934Z,53.63
2023-06-02T02:09:45.912Z,55.96
2023-06-02T02:10:45.918Z,55.44
2023-06-02T02:11:45.883Z,53.61
2023-06-02T02:12:45.839Z,52.34
2023-06-02T02:13:45.831Z,50.00
2023-06-02T02:14:45.846Z,51.92
2023-06-02T02:15:45.857Z,52.88
2023-06-02T02:16:45.929Z,52.51
2023-06-02T02:17:45.846Z,50.01
2023-06-02T02:18:45.759Z,50.99
2023-06-02T02:19:45.760Z,52.88
2023-06-02T02:20:45.733Z,53.79
2023-06-02T02:21:45.823Z,52.33
2023-06-02T02:22:45.701Z,52.44
2023-06-02T02:23:45.672Z,53.10
2023-06-02T02:24:45.627Z,51.43
2023-06-02T02:25:45.641Z,52.64
2023-06-02T02:26:45.612Z,53.53
2023-06-02T02:27:45.621Z,52.09
2023-06-02T02:28:45.584Z,52.98
2023-06-02T02:29:45.570Z,50.87
2023-06-02T02:30:45.558Z,51.39
2023-06-02T02:31:45.531Z,50.89
2023-06-02T02:32:45.575Z,52.10
2023-06-02T02:33:45.467Z,53.32
2023-06-02T02:34:45.497Z,54.79
2023-06-02T02:35:45.468Z,53.72
2023-06-02T02:36:45.475Z,55.28
2023-06-02T02:37:47.626Z,53.49
2023-06-02T02:38:45.550Z,56.06
2023-06-02T02:39:45.531Z,58.53
2023-06-02T02:40:45.566Z,55.44
2023-06-02T02:41:45.567Z,54.97
2023-06-02T02:42:45.679Z,54.67
2023-06-02T02:43:45.575Z,54.01
2023-06-02T02:44:45.595Z,54.17
2023-06-02T02:45:45.726Z,57.43
2023-06-02T02:46:45.650Z,56.32
2023-06-02T02:47:45.744Z,55.06
2023-06-02T02:48:45.710Z,56.70
2023-06-02T02:49:45.704Z,52.71
2023-06-02T02:50:45.718Z,55.97
2023-06-02T02:51:45.734Z,54.24
2023-06-02T02:52:45.765Z,55.49
2023-06-02T02:53:45.824Z,55.50
2023-06-02T02:54:45.776Z,51.81
2023-06-02T02:55:45.870Z,55.82
2023-06-02T02:56:45.931Z,52.62
2023-06-02T02:57:45.862Z,56.57
2023-06-02T02:58:45.903Z,55.35
2023-06-02T02:59:45.914Z,56.00
2023-06-02T03:00:45.946Z,56.00
2023-06-02T03:01:45.933Z,57.16
2023-06-02T03:02:46.040Z,56.30
2023-06-02T03:03:46.032Z,56.09
2023-06-02T03:04:46.012Z,57.82
2023-06-02T03:05:45.999Z,58.66
2023-06-02T03:06:46.015Z,59.36
2023-06-02T03:07:46.083Z,54.97
2023-06-02T03:08:46.029Z,56.38
2023-06-02T03:09:46.079Z,59.51
2023-06-02T03:10:46.089Z,57.54
2023-06-02T03:11:46.103Z,60.03
2023-06-02T03:12:46.159Z,57.17
2023-06-02T03:13:46.126Z,56.98
2023-06-02T03:14:46.176Z,55.19
2023-06-02T03:15:46.166Z,55.66
2023-06-02T03:16:46.346Z,54.39
2023-06-02T03:17:46.281Z,56.19
2023-06-02T03:18:46.290Z,55.07
2023-06-02T03:19:46.290Z,55.97
2023-06-02T03:20:46.321Z,55.10
2023-06-02T03:21:46.405Z,53.60
2023-06-02T03:22:46.343Z,53.77
2023-06-02T03:23:46.363Z,55.56
2023-06-02T03:24:46.362Z,54.28
2023-06-02T03:25:46.438Z,54.63
2023-06-02T03:26:46.420Z,56.07
2023-06-02T03:27:46.462Z,57.80
2023-06-02T03:28:46.513Z,53.56
2023-06-02T03:29:46.519Z,54.51
2023-06-02T03:30:46.558Z,55.71
2023-06-02T03:31:46.621Z,55.64
2023-06-02T03:32:46.618Z,57.09
2023-06-02T03:33:46.607Z,55.97
2023-06-02T03:34:46.643Z,58.55
2023-06-02T03:35:46.670Z,56.57
2023-06-02T03:36:46.665Z,54.02
2023-06-02T03:37:46.704Z,53.50
2023-06-02T03:38:46.714Z,57.73
2023-06-02T03:39:46.747Z,57.33
2023-06-02T03:40:46.794Z,57.17
2023-06-02T03:41:46.801Z,56.25
2023-06-02T03:42:46.798Z,55.66
2023-06-02T03:43:46.863Z,54.96
2023-06-02T03:44:46.892Z,53.26
2023-06-02T03:45:46.905Z,52.42
2023-06-02T03:46:46.946Z,56.34
2023-06-02T03:47:46.966Z,55.39
2023-06-02T03:48:46.941Z,52.94
2023-06-02T03:49:47.013Z,52.45
2023-06-02T03:50:46.998Z,54.96
2023-06-02T03:51:47.000Z,52.79
2023-06-02T03:52:47.032Z,52.23
2023-06-02T03:53:47.088Z,54.51
2023-06-02T03:54:47.112Z,54.09
2023-06-02T03:55:47.085Z,53.47
2023-06-02T03:56:47.123Z,51.54
2023-06-02T03:57:47.164Z,51.79
2023-06-02T03:58:47.162Z,52.46
2023-06-02T03:59:47.229Z,51.63
2023-06-02T04:00:47.207Z,51.17
2023-06-02T04:01:47.284Z,53.68
2023-06-02T04:02:47.282Z,55.03
2023-06-02T04:03:47.341Z,55.11
2023-06-02T04:04:47.342Z,56.04
2023-06-02T04:05:47.309Z,53.30
2023-06-02T04:06:47.313Z,52.64
2023-06-02T04:07:47.349Z,55.69
2023-06-02T04:08:47.363Z,53.32
2023-06-02T04:09:47.367Z,57.26
2023-06-02T04:10:47.405Z,56.57
2023-06-02T04:11:47.402Z,57.38
2023-06-02T04:12:47.440Z,58.06
2023-06-02T04:13:47.381Z,57.28
2023-06-02T04:14:47.386Z,57.19
2023-06-02T04:15:47.427Z,57.22
2023-06-02T04:16:47.447Z,55.63
2023-06-02T04:17:47.530Z,57.87
2023-06-02T04:18:47.460Z,55.30
2023-06-02T04:19:47.517Z,58.41
2023-06-02T04:20:47.443Z,56.01
2023-06-02T04:21:47.473Z,56.01
2023-06-02T04:22:47.486Z,53.01
2023-06-02T04:23:47.485Z,54.87
2023-06-02T04:24:47.460Z,54.02
2023-06-02T04:25:47.478Z,53.02
2023-06-02T04:26:47.492Z,55.42
2023-06-02T04:27:47.460Z,53.94
2023-06-02T04:28:47.480Z,55.37
2023-06-02T04:29:47.494Z,51.50
2023-06-02T04:30:47.504Z,53.64
2023-06-02T04:31:47.491Z,52.57
2023-06-02T04:32:47.493Z,53.16
2023-06-02T04:33:47.461Z,54.79
2023-06-02T04:34:47.438Z,55.20
2023-06-02T04:35:47.466Z,55.46
2023-06-02T04:36:47.474Z,54.42
2023-06-02T04:37:47.442Z,52.56
2023-06-02T04:38:47.543Z,50.75
2023-06-02T04:39:47.414Z,51.93
2023-06-02T04:40:47.422Z,52.12
2023-06-02T04:41:47.402Z,51.39
2023-06-02T04:42:47.380Z,52.00
2023-06-02T04:43:47.337Z,50.58
2023-06-02T04:44:47.341Z,52.56
2023-06-02T04:45:47.374Z,51.50
2023-06-02T04:46:47.370Z,51.59
2023-06-02T04:47:47.364Z,53.71
2023-06-02T04:48:47.297Z,50.94
2023-06-02T04:49:47.303Z,51.38
2023-06-02T04:50:47.275Z,50.00
2023-06-02T04:51:47.287Z,50.53
2023-06-02T04:52:47.314Z,52.87
2023-06-02T04:53:47.220Z,50.00
2023-06-02T04:54:47.230Z,51.07
2023-06-02T04:55:47.234Z,50.00
2023-06-02T04:56:47.187Z,50.00
2023-06-02T04:57:47.199Z,51.52
2023-06-02T04:58:47.181Z,55.14
2023-06-02T04:59:47.181Z,54.74
2023-06-02T05:00:47.205Z,54.05
2023-06-02T05:01:47.295Z,55.10
2023-06-02T05:02:47.284Z,54.01
2023-06-02T05:03:47.246Z,50.82
2023-06-02T05:04:47.196Z,50.41
2023-06-02T05:05:47.206Z,50.67
2023-06-02T05:06:47.221Z,50.00
2023-06-02T05:07:47.234Z,50.75
2023-06-02T05:08:47.228Z,50.33
2023-06-02T05:09:47.237Z,50.39
2023-06-02T05:10:47.244Z,49.76
2023-06-02T05:11:47.229Z,52.07
2023-06-02T05:12:47.252Z,52.69
2023-06-02T05:13:47.272Z,50.00
2023-06-02T05:14:47.244Z,52.18
2023-06-02T05:15:47.271Z,50.00
2023-06-02T05:16:47.278Z,53.14
2023-06-02T05:17:47.287Z,50.00
2023-06-02T05:18:47.293Z,51.60
2023-06-02T05:19:47.342Z,51.07
2023-06-02T05:20:47.302Z,53.01
2023-06-02T05:21:47.310Z,52.50
2023-06-02T05:22:47.318Z,50.95
2023-06-02T05:23:47.318Z,50.41
2023-06-02T05:24:47.327Z,51.49
2023-06-02T05:25:47.331Z,52.72
2023-06-02T05:26:47.422Z,50.55
2023-06-02T05:27:47.318Z,50.54
2023-06-02T05:28:47.367Z,53.04
2023-06-02T05:29:47.364Z,52.68
2023-06-02T05:30:47.397Z,50.40
2023-06-02T05:31:47.424Z,52.42
2023-06-02T05:32:47.396Z,52.49
2023-06-02T05:33:47.389Z,50.00
2023-06-02T05:34:47.427Z,51.20
2023-06-02T05:35:47.426Z,50.00
2023-06-02T05:36:47.467Z,52.07
2023-06-02T05:37:47.496Z,53.78
2023-06-02T05:38:47.580Z,51.89
2023-06-02T05:39:47.516Z,50.00
2023-06-02T05:40:47.609Z,50.00
2023-06-02T05:41:47.517Z,51.55
2023-06-02T05:42:47.553Z,52.31
2023-06-02T05:43:47.575Z,54.10
2023-06-02T05:44:47.551Z,58.73
2023-06-02T05:45:47.622Z,58.32
2023-06-02T05:46:47.589Z,62.58
2023-06-02T05:47:47.644Z,66.87
2023-06-02T05:48:47.610Z,70.83
2023-06-02T05:49:47.550Z,81.80
2023-06-02T05:50:47.563Z,85.51
2023-06-02T05:51:47.575Z,83.65
2023-06-02T05:52:47.569Z,83.65
2023-06-02T05:53:47.585Z,89.51
2023-06-02T05:54:47.544Z,92.98
2023-06-02T05:55:48.065Z,89.16
2023-06-02T05:56:47.539Z,95.48
2023-06-02T05:57:47.566Z,101.31
2023-06-02T05:58:47.552Z,105.16
2023-06-02T05:59:47.579Z,106.45
2023-06-02T06:00:47.601Z,108.45
2023-06-02T06:01:47.620Z,109.85
2023-06-02T06:02:47.657Z,112.16
2023-06-02T06:03:47.713Z,109.68
2023-06-02T06:04:47.658Z,107.03
2023-06-02T06:05:47.647Z,105.33
2023-06-02T06:06:47.671Z,103.08
2023-06-02T06:07:47.633Z,98.13
2023-06-02T06:08:47.656Z,94.20
2023-06-02T06:09:47.680Z,89.03
2023-06-02T06:10:47.685Z,82.92
2023-06-02T06:11:47.702Z,79.76
2023-06-02T06:12:47.700Z,74.36
2023-06-02T06:13:47.748Z,67.62
2023-06-02T06:14:47.773Z,67.05
2023-06-02T06:15:47.836Z,65.39
2023-06-02T06:16:47.801Z,62.53
2023-06-02T06:17:47.808Z,57.56
2023-06-02T06:18:47.859Z,55.31
2023-06-02T06:19:47.823Z,54.63
2023-06-02T06:20:47.853Z,54.53
2023-06-02T06:21:47.925Z,50.71
2023-06-02T06:22:47.918Z,51.24
2023-06-02T06:23:47.957Z,50.00
2023-06-02T06:24:47.924Z,54.51
2023-06-02T06:25:48.031Z,54.77
2023-06-02T06:26:47.970Z,52.35
2023-06-02T06:27:47.983Z,52.17
2023-06-02T06:28:47.987Z,50.00
2023-06-02T06:29:47.989Z,56.49
2023-06-02T06:30:47.987Z,51.64
2023-06-02T06:31:48.097Z,51.73
2023-06-02T06:32:48.064Z,53.96
2023-06-02T06:33:48.045Z,54.41
2023-06-02T06:34:48.089Z,55.20
2023-06-02T06:35:48.064Z,53.11
2023-06-02T06:36:48.079Z,58.61
2023-06-02T06:37:48.112Z,60.11
2023-06-02T06:38:48.102Z,53.42
2023-06-02T06:39:48.092Z,57.55
2023-06-02T06:40:48.107Z,62.37
2023-06-02T06:41:48.104Z,67.46
2023-06-02T06:42:48.108Z,71.64
2023-06-02T06:43:48.114Z,76.90
2023-06-02T06:44:48.097Z,80.47
2023-06-02T06:45:48.100Z,83.61
2023-06-02T06:46:48.102Z,68.75
2023-06-02T06:47:48.288Z,63.53
2023-06-02T06:48:50.154Z,62.97
2023-06-02T06:49:48.091Z,65.71
2023-06-02T06:50:48.055Z,78.35
2023-06-02T06:51:48.078Z,86.56
2023-06-02T06:52:48.101Z,91.89
2023-06-02T06:53:48.006Z,96.15
2023-06-02T06:54:48.002Z,98.96
2023-06-02T06:55:48.016Z,100.50
2023-06-02T06:56:48.006Z,101.05
2023-06-02T06:57:47.997Z,100.64
2023-06-02T06:58:47.940Z,100.38
2023-06-02T06:59:47.945Z,104.29
2023-06-02T07:00:47.946Z,95.67
2023-06-02T07:01:47.932Z,93.65
2023-06-02T07:02:47.986Z,92.57
2023-06-02T07:03:48.028Z,91.07
2023-06-02T07:04:47.845Z,89.75
2023-06-02T07:05:47.870Z,84.82
2023-06-02T07:06:47.829Z,86.04
2023-06-02T07:07:47.945Z,84.16
2023-06-02T07:08:47.771Z,88.34
2023-06-02T07:09:47.755Z,86.69
2023-06-02T07:10:47.801Z,89.20
2023-06-02T07:11:47.766Z,81.89
2023-06-02T07:12:47.744Z,75.85
2023-06-02T07:13:47.712Z,72.75
2023-06-02T07:14:47.688Z,62.03
2023-06-02T07:15:47.689Z,59.39
2023-06-02T07:16:47.833Z,51.29
2023-06-02T07:17:47.673Z,50.58
2023-06-02T07:18:47.600Z,49.70
2023-06-02T07:19:47.591Z,52.88
2023-06-02T07:20:47.574Z,52.95
2023-06-02T07:21:47.600Z,50.73
2023-06-02T07:22:47.559Z,63.39
2023-06-02T07:23:47.525Z,64.85
2023-06-02T07:24:47.501Z,65.18
2023-06-02T07:25:47.474Z,61.30
2023-06-02T07:26:47.449Z,61.63
2023-06-02T07:27:47.443Z,58.19
2023-06-02T07:28:47.445Z,54.69
2023-06-02T07:29:47.447Z,53.15
2023-06-02T07:30:49.532Z,49.55
2023-06-02T07:31:48.419Z,48.28
2023-06-02T07:32:47.413Z,44.74
2023-06-02T07:33:47.358Z,45.27
2023-06-02T07:34:47.342Z,53.61
2023-06-02T07:35:47.347Z,59.85
2023-06-02T07:36:47.385Z,54.86
2023-06-02T07:37:47.301Z,50.00
2023-06-02T07:38:47.310Z,50.30
2023-06-02T07:39:47.275Z,49.53
2023-06-02T07:40:47.280Z,54.39
2023-06-02T07:41:47.243Z,67.98
2023-06-02T07:42:47.246Z,71.28
2023-06-02T07:43:47.249Z,75.54
2023-06-02T07:44:47.223Z,84.28
2023-06-02T07:45:47.207Z,68.34
2023-06-02T07:46:47.238Z,57.79
2023-06-02T07:47:47.200Z,52.57
2023-06-02T07:48:47.119Z,54.04
2023-06-02T07:49:47.142Z,52.86
2023-06-02T07:50:47.142Z,53.14
2023-06-02T07:51:47.061Z,53.21
2023-06-02T07:52:47.049Z,50.00
2023-06-02T07:53:47.083Z,50.00
2023-06-02T07:54:47.057Z,48.08
2023-06-02T07:55:47.095Z,50.46
2023-06-02T07:56:47.022Z,50.00
2023-06-02T07:57:47.021Z,48.16
2023-06-02T07:58:47.005Z,50.00
2023-06-02T07:59:46.963Z,52.76
2023-06-02T08:00:46.974Z,66.31
2023-06-02T08:01:47.070Z,80.23
2023-06-02T08:02:47.153Z,87.05
2023-06-02T08:03:47.023Z,90.76
2023-06-02T08:04:47.196Z,100.50
2023-06-02T08:05:46.961Z,103.33
2023-06-02T08:06:46.950Z,103.48
2023-06-02T08:07:46.920Z,98.40
2023-06-02T08:08:46.893Z,95.46
2023-06-02T08:09:46.943Z,100.69
2023-06-02T08:10:46.900Z,100.97
2023-06-02T08:11:46.910Z,102.82
2023-06-02T08:12:46.904Z,99.60
2023-06-02T08:13:46.879Z,98.51
2023-06-02T08:14:46.896Z,96.29
2023-06-02T08:15:52.008Z,90.40
2023-06-02T08:16:57.901Z,86.59
2023-06-02T08:17:47.964Z,85.31
2023-06-02T08:18:46.997Z,80.47
2023-06-02T08:19:46.863Z,79.64
2023-06-02T08:20:46.841Z,84.31
2023-06-02T08:21:46.836Z,75.48
2023-06-02T08:22:46.821Z,67.63
2023-06-02T08:23:46.795Z,69.17
2023-06-02T08:24:46.831Z,68.43
2023-06-02T08:25:46.758Z,53.31
2023-06-02T08:26:46.827Z,54.26
2023-06-02T08:27:46.756Z,51.57
2023-06-02T08:28:46.703Z,50.27
2023-06-02T08:29:46.730Z,51.22
2023-06-02T08:30:46.684Z,50.65
2023-06-02T08:31:46.710Z,49.21
2023-06-02T08:32:46.688Z,48.57
2023-06-02T08:33:46.657Z,50.00
2023-06-02T08:34:46.653Z,53.85
2023-06-02T08:35:46.695Z,54.57
2023-06-02T08:36:46.701Z,63.64
2023-06-02T08:37:46.600Z,76.76
2023-06-02T08:38:47.517Z,90.95
2023-06-02T08:39:46.562Z,105.48
2023-06-02T08:40:46.594Z,132.98
2023-06-02T08:41:46.594Z,156.42
2023-06-02T08:42:46.521Z,174.90
2023-06-02T08:43:46.505Z,188.31
2023-06-02T08:44:48.916Z,199.39
2023-06-02T08:45:46.476Z,195.31
2023-06-02T08:46:46.547Z,185.12
2023-06-02T08:47:46.508Z,190.94
2023-06-02T08:48:46.487Z,185.24
2023-06-02T08:49:46.436Z,178.12
2023-06-02T08:50:46.455Z,177.72
2023-06-02T08:51:46.413Z,189.68
2023-06-02T08:52:46.397Z,189.90
2023-06-02T08:53:46.384Z,189.82
2023-06-02T08:54:46.411Z,191.99
2023-06-02T08:55:46.367Z,187.22
2023-06-02T08:56:46.431Z,187.27
2023-06-02T08:57:46.353Z,185.56
2023-06-02T08:58:46.356Z,186.87
2023-06-02T08:59:46.341Z,181.24
2023-06-02T09:00:46.303Z,178.85
2023-06-02T09:01:46.332Z,165.05
2023-06-02T09:02:46.329Z,159.20
2023-06-02T09:03:47.508Z,154.21
2023-06-02T09:04:46.295Z,168.51
2023-06-02T09:05:46.331Z,179.48
2023-06-02T09:06:46.273Z,193.33
2023-06-02T09:07:46.229Z,194.53
2023-06-02T09:08:46.186Z,199.62
2023-06-02T09:09:46.232Z,198.44
2023-06-02T09:10:46.181Z,195.25
2023-06-02T09:11:46.172Z,190.75
2023-06-02T09:12:46.210Z,186.39
2023-06-02T09:13:46.150Z,187.45
2023-06-02T09:14:46.135Z,187.99
2023-06-02T09:15:46.124Z,194.97
2023-06-02T09:16:46.130Z,193.93
2023-06-02T09:17:46.163Z,193.03
2023-06-02T09:18:46.093Z,186.44
2023-06-02T09:19:46.078Z,176.63
2023-06-02T09:20:46.039Z,174.84
2023-06-02T09:21:46.014Z,196.21
2023-06-02T09:22:55.272Z,196.86
2023-06-02T09:23:53.971Z,196.91
2023-06-02T09:24:46.970Z,196.98
2023-06-02T09:25:45.993Z,197.29
2023-06-02T09:26:45.968Z,198.69
2023-06-02T09:28:36.348Z,50.00
2023-06-02T09:29:36.391Z,50.00
2023-06-02T09:30:36.410Z,50.00
2023-06-02T09:31:36.518Z,50.00
2023-06-02T09:32:36.485Z,50.00
2023-06-02T09:33:36.417Z,52.22
2023-06-02T09:34:36.521Z,56.55
2023-06-02T09:35:36.471Z,60.85
2023-06-02T09:36:36.451Z,54.61
2023-06-02T09:37:36.440Z,51.79
2023-06-02T09:38:36.460Z,50.53
2023-06-02T09:39:36.507Z,52.68
2023-06-02T09:40:36.566Z,76.53
2023-06-02T09:41:37.065Z,97.51
2023-06-02T09:42:36.548Z,111.91
2023-06-02T09:43:36.524Z,119.30
2023-06-02T09:44:36.538Z,130.08
2023-06-02T09:45:36.605Z,137.92
2023-06-02T09:46:37.953Z,136.95
2023-06-02T09:47:36.639Z,131.42
2023-06-02T09:48:36.884Z,150.69
2023-06-02T09:49:36.604Z,155.56
2023-06-02T09:50:36.593Z,146.60
2023-06-02T09:51:36.616Z,137.93
2023-06-02T09:52:38.287Z,133.08
2023-06-02T09:53:36.633Z,131.74
2023-06-02T09:54:36.635Z,132.08
2023-06-02T09:55:36.642Z,148.08
2023-06-02T09:56:36.658Z,168.81
2023-06-02T09:57:36.656Z,171.06
2023-06-02T09:58:36.765Z,170.46
2023-06-02T09:59:36.659Z,170.20
2023-06-02T10:00:36.731Z,173.12
2023-06-02T10:01:36.815Z,181.58
2023-06-02T10:02:38.450Z,170.47
2023-06-02T10:03:36.948Z,157.66
2023-06-02T10:04:36.695Z,147.54
2023-06-02T10:05:36.729Z,152.65
2023-06-02T10:06:36.753Z,156.95
2023-06-02T10:07:36.798Z,157.51
2023-06-02T10:08:36.856Z,165.33
2023-06-02T10:09:36.884Z,168.40
2023-06-02T10:10:36.914Z,169.53
2023-06-02T10:11:36.951Z,173.44
2023-06-02T10:12:37.007Z,161.94
2023-06-02T10:13:37.084Z,161.11
2023-06-02T10:14:37.092Z,167.91
2023-06-02T10:15:37.248Z,178.70
2023-06-02T10:16:37.195Z,165.70
2023-06-02T10:17:37.312Z,161.77
2023-06-02T10:18:37.298Z,160.45
2023-06-02T10:19:37.333Z,151.83
2023-06-02T10:20:37.410Z,155.17
2023-06-02T10:21:37.524Z,151.84
2023-06-02T10:22:37.514Z,147.54
2023-06-02T10:23:37.651Z,142.91
2023-06-02T10:24:37.668Z,140.63
2023-06-02T10:25:37.639Z,141.05
2023-06-02T10:26:37.675Z,138.31
2023-06-02T10:27:37.857Z,141.01
2023-06-02T10:28:37.796Z,138.10
2023-06-02T10:29:37.869Z,136.28
2023-06-02T10:30:38.652Z,130.67
2023-06-02T10:31:38.058Z,135.76
2023-06-02T10:32:37.980Z,133.76
2023-06-02T10:33:38.063Z,135.23
2023-06-02T10:34:38.090Z,143.13
2023-06-02T10:35:38.112Z,148.59
2023-06-02T10:36:38.181Z,163.73
2023-06-02T10:37:38.261Z,176.09
2023-06-02T10:38:38.301Z,176.57
2023-06-02T10:39:38.359Z,160.50
2023-06-02T10:40:38.426Z,159.70
2023-06-02T10:41:38.470Z,164.84
2023-06-02T10:42:38.455Z,167.59
2023-06-02T10:43:38.497Z,168.54
2023-06-02T10:44:38.544Z,165.44
2023-06-02T10:45:38.590Z,164.73
2023-06-02T10:46:38.654Z,160.69
2023-06-02T10:47:38.697Z,157.64
2023-06-02T10:48:38.643Z,155.55
2023-06-02T10:49:50.423Z,156.91
2023-06-02T10:50:39.696Z,157.42
2023-06-02T10:51:39.553Z,158.69
2023-06-02T10:52:38.695Z,161.85
2023-06-02T10:53:38.686Z,163.99
2023-06-02T10:54:38.690Z,172.01
2023-06-02T10:55:38.700Z,175.83
2023-06-02T10:56:38.743Z,173.69
2023-06-02T10:57:38.705Z,167.90
2023-06-02T10:58:38.704Z,161.72
2023-06-02T10:59:38.712Z,150.45
2023-06-02T11:00:38.732Z,149.49
2023-06-02T11:01:38.808Z,145.90
2023-06-02T11:02:38.795Z,140.58
2023-06-02T11:03:38.789Z,137.23
2023-06-02T11:04:38.739Z,132.53
2023-06-02T11:05:38.753Z,140.03
2023-06-02T11:06:38.777Z,135.95
2023-06-02T11:07:38.769Z,139.24
2023-06-02T11:08:38.808Z,127.05
2023-06-02T11:09:38.799Z,127.93
2023-06-02T11:10:38.783Z,119.64
2023-06-02T11:11:38.884Z,124.06
2023-06-02T11:12:38.857Z,126.87
2023-06-02T11:13:38.921Z,126.96
2023-06-02T11:14:38.951Z,126.74
2023-06-02T11:15:38.958Z,122.03
2023-06-02T11:16:39.033Z,100.77
2023-06-02T11:17:39.194Z,87.64
2023-06-02T11:18:39.063Z,88.15
2023-06-02T11:19:39.119Z,87.45
2023-06-02T11:20:39.146Z,80.56
2023-06-02T11:21:39.242Z,79.07
2023-06-02T11:22:39.213Z,82.05
2023-06-02T11:23:39.244Z,85.91
2023-06-02T11:24:39.267Z,91.36
2023-06-02T11:25:39.313Z,92.25
2023-06-02T11:26:39.907Z,71.90
2023-06-02T11:27:39.394Z,83.46
2023-06-02T11:28:39.390Z,87.89
2023-06-02T11:29:39.447Z,90.29
2023-06-02T11:30:39.507Z,89.25
2023-06-02T11:31:39.503Z,87.12
2023-06-02T11:32:39.536Z,90.37
2023-06-02T11:33:39.533Z,86.76
2023-06-02T11:34:39.559Z,84.54
2023-06-02T11:35:39.606Z,83.09
2023-06-02T11:36:39.624Z,89.76
2023-06-02T11:37:39.661Z,86.45
2023-06-02T11:38:39.621Z,63.83
2023-06-02T11:39:39.689Z,70.86
2023-06-02T11:40:39.685Z,81.56
2023-06-02T11:41:39.693Z,86.01
2023-06-02T11:42:39.754Z,81.01
2023-06-02T11:43:39.824Z,74.78
2023-06-02T11:44:39.799Z,84.57
2023-06-02T11:45:39.850Z,79.54
2023-06-02T11:46:39.866Z,84.38
2023-06-02T11:47:39.892Z,83.34
2023-06-02T11:48:39.978Z,82.09
2023-06-02T11:49:39.931Z,78.33
2023-06-02T11:50:39.950Z,77.77
2023-06-02T11:51:40.015Z,80.51
2023-06-02T11:52:39.950Z,81.10
2023-06-02T11:53:39.965Z,64.19
2023-06-02T11:54:40.048Z,61.76
2023-06-02T11:55:40.022Z,62.99
2023-06-02T11:56:40.046Z,64.39
2023-06-02T11:57:40.063Z,68.43
2023-06-02T11:58:40.108Z,60.14
2023-06-02T11:59:40.100Z,63.04
2023-06-02T12:00:40.103Z,59.37
2023-06-02T12:01:40.184Z,60.23
2023-06-02T12:02:40.383Z,62.26
2023-06-02T12:03:40.306Z,73.29
2023-06-02T12:04:40.313Z,80.61
2023-06-02T12:05:40.278Z,70.53
2023-06-02T12:06:40.310Z,68.73
2023-06-02T12:07:40.304Z,65.89
2023-06-02T12:08:40.386Z,62.43
2023-06-02T12:09:40.401Z,58.11
2023-06-02T12:10:40.589Z,56.49
2023-06-02T12:11:40.477Z,52.68
2023-06-02T12:12:40.500Z,55.01
2023-06-02T12:13:40.537Z,49.56
2023-06-02T12:14:40.667Z,51.42
2023-06-02T12:15:40.557Z,62.57
2023-06-02T12:16:40.626Z,60.43
2023-06-02T12:17:40.611Z,61.14
2023-06-02T12:18:40.609Z,51.50
2023-06-02T12:19:40.654Z,50.79
2023-06-02T12:20:40.651Z,53.83
2023-06-02T12:21:40.706Z,56.71
2023-06-02T12:22:40.694Z,59.12
2023-06-02T12:23:40.704Z,50.00
2023-06-02T12:24:40.721Z,50.00
2023-06-02T12:25:40.741Z,49.09
2023-06-02T12:26:40.781Z,51.14
2023-06-02T12:27:40.796Z,50.00
2023-06-02T12:28:40.806Z,50.00
2023-06-02T12:29:40.827Z,50.00
2023-06-02T12:30:40.855Z,54.06
2023-06-02T12:31:40.967Z,59.53
2023-06-02T12:32:40.903Z,52.20
2023-06-02T12:33:40.904Z,53.60
2023-06-02T12:34:40.925Z,51.81
2023-06-02T12:35:40.977Z,57.36
2023-06-02T12:36:40.993Z,50.00
2023-06-02T12:37:40.982Z,50.00
2023-06-02T12:38:41.004Z,50.00
2023-06-02T12:39:41.019Z,54.48
2023-06-02T12:40:41.032Z,50.00
2023-06-02T12:41:41.067Z,51.37
2023-06-02T12:42:41.116Z,60.35
2023-06-02T12:43:41.104Z,60.98
2023-06-02T12:44:42.090Z,56.09
2023-06-02T12:45:41.128Z,60.91